createdAt,value
2023-05-13T00:00:31.150Z,29.78
2023-05-13T00:01:31.167Z,29.82
2023-05-13T00:02:31.203Z,29.81
2023-05-13T00:03:31.197Z,29.79
2023-05-13T00:04:31.196Z,29.81
2023-05-13T00:05:31.139Z,29.78
2023-05-13T00:06:31.249Z,29.76
2023-05-13T00:07:31.205Z,29.78
2023-05-13T00:08:31.205Z,29.78
2023-05-13T00:09:31.223Z,29.74
2023-05-13T00:10:31.220Z,29.82
2023-05-13T00:11:31.230Z,29.70
2023-05-13T00:12:31.294Z,29.72
2023-05-13T00:13:31.288Z,29.76
2023-05-13T00:14:31.299Z,29.75
2023-05-13T00:15:31.282Z,29.78
2023-05-13T00:16:31.335Z,29.67
2023-05-13T00:17:31.324Z,29.68
2023-05-13T00:18:31.316Z,29.76
2023-05-13T00:19:31.290Z,29.67
2023-05-13T00:20:31.324Z,29.67
2023-05-13T00:21:31.329Z,29.68
2023-05-13T00:22:31.348Z,29.62
2023-05-13T00:23:31.349Z,29.68
2023-05-13T00:24:31.357Z,29.65
2023-05-13T00:25:31.313Z,29.68
2023-05-13T00:26:31.349Z,29.65
2023-05-13T00:27:31.371Z,29.61
2023-05-13T00:28:31.368Z,29.64
2023-05-13T00:29:31.420Z,29.60
2023-05-13T00:30:31.371Z,29.62
2023-05-13T00:31:31.409Z,29.64
2023-05-13T00:32:31.438Z,29.65
2023-05-13T00:33:31.424Z,29.62
2023-05-13T00:34:31.396Z,29.69
2023-05-13T00:35:31.458Z,29.57
2023-05-13T00:36:31.438Z,29.64
2023-05-13T00:37:31.450Z,29.59
2023-05-13T00:38:31.436Z,29.62
2023-05-13T00:39:31.470Z,29.58
2023-05-13T00:40:31.467Z,29.57
2023-05-13T00:41:31.487Z,29.55
2023-05-13T00:42:31.496Z,29.57
2023-05-13T00:43:31.466Z,29.57
2023-05-13T00:44:31.501Z,29.53
2023-05-13T00:45:31.540Z,29.53
2023-05-13T00:46:31.619Z,29.54
2023-05-13T00:47:31.547Z,29.55
2023-05-13T00:48:31.513Z,29.53
2023-05-13T00:49:31.552Z,29.50
2023-05-13T00:50:31.615Z,29.58
2023-05-13T00:51:31.605Z,29.51
2023-05-13T00:52:31.626Z,29.51
2023-05-13T00:53:31.557Z,29.54
2023-05-13T00:54:31.579Z,29.54
2023-05-13T00:55:31.630Z,29.50
2023-05-13T00:56:31.637Z,29.50
2023-05-13T00:57:31.637Z,29.51
2023-05-13T00:58:31.650Z,29.53
2023-05-13T00:59:31.655Z,29.48
2023-05-13T01:00:31.676Z,29.51
2023-05-13T01:01:31.734Z,29.50
2023-05-13T01:02:31.710Z,29.47
2023-05-13T01:03:31.766Z,29.52
2023-05-13T01:04:31.719Z,29.50
2023-05-13T01:05:31.720Z,29.46
2023-05-13T01:06:31.724Z,29.46
2023-05-13T01:07:31.757Z,29.43
2023-05-13T01:08:31.813Z,29.45
2023-05-13T01:09:31.796Z,29.48
2023-05-13T01:10:31.776Z,29.44
2023-05-13T01:11:31.840Z,29.44
2023-05-13T01:12:31.855Z,29.47
2023-05-13T01:13:31.896Z,29.45
2023-05-13T01:14:31.870Z,29.44
2023-05-13T01:15:31.925Z,29.47
2023-05-13T01:16:31.908Z,29.44
2023-05-13T01:17:32.012Z,29.45
2023-05-13T01:18:32.045Z,29.47
2023-05-13T01:19:31.933Z,29.44
2023-05-13T01:20:31.946Z,29.45
2023-05-13T01:21:31.952Z,29.44
2023-05-13T01:22:31.957Z,29.44
2023-05-13T01:23:32.008Z,29.41
2023-05-13T01:24:32.088Z,29.44
2023-05-13T01:25:32.028Z,29.41
2023-05-13T01:26:32.036Z,29.41
2023-05-13T01:27:32.052Z,29.45
2023-05-13T01:28:32.102Z,29.43
2023-05-13T01:29:32.102Z,29.45
2023-05-13T01:30:32.138Z,29.44
2023-05-13T01:31:32.137Z,29.44
2023-05-13T01:32:32.144Z,29.47
2023-05-13T01:33:32.189Z,29.47
2023-05-13T01:34:32.218Z,29.43
2023-05-13T01:35:32.232Z,29.48
2023-05-13T01:36:32.236Z,29.41
2023-05-13T01:37:32.234Z,29.41
2023-05-13T01:38:32.289Z,29.40
2023-05-13T01:39:32.299Z,29.45
2023-05-13T01:40:33.222Z,29.49
2023-05-13T01:41:32.359Z,29.44
2023-05-13T01:42:32.354Z,29.38
2023-05-13T01:43:32.371Z,29.39
2023-05-13T01:44:32.436Z,29.45
2023-05-13T01:45:32.422Z,29.42
2023-05-13T01:46:32.470Z,29.41
2023-05-13T01:47:32.511Z,29.43
2023-05-13T01:48:32.501Z,29.37
2023-05-13T01:49:32.512Z,29.40
2023-05-13T01:50:32.571Z,29.35
2023-05-13T01:51:32.565Z,29.39
2023-05-13T01:52:32.592Z,29.39
2023-05-13T01:53:32.644Z,29.39
2023-05-13T01:54:32.670Z,29.38
2023-05-13T01:55:32.654Z,29.42
2023-05-13T01:56:32.695Z,29.39
2023-05-13T01:57:32.696Z,29.38
2023-05-13T01:58:32.703Z,29.42
2023-05-13T01:59:32.798Z,29.42
2023-05-13T02:00:32.774Z,29.38
2023-05-13T02:01:32.837Z,29.41
2023-05-13T02:02:32.932Z,29.39
2023-05-13T02:03:32.909Z,29.41
2023-05-13T02:04:32.868Z,29.41
2023-05-13T02:05:32.923Z,29.39
2023-05-13T02:06:33.005Z,29.39
2023-05-13T02:07:32.974Z,29.37
2023-05-13T02:08:32.983Z,29.38
2023-05-13T02:09:32.993Z,29.34
2023-05-13T02:10:33.070Z,29.40
2023-05-13T02:11:33.103Z,29.38
2023-05-13T02:12:33.106Z,29.32
2023-05-13T02:13:33.134Z,29.36
2023-05-13T02:14:33.187Z,29.36
2023-05-13T02:15:33.199Z,29.38
2023-05-13T02:16:33.259Z,29.41
2023-05-13T02:17:33.268Z,29.35
2023-05-13T02:18:33.292Z,29.36
2023-05-13T02:19:33.315Z,29.36
2023-05-13T02:20:33.330Z,29.37
2023-05-13T02:21:33.372Z,29.39
2023-05-13T02:22:33.384Z,29.38
2023-05-13T02:23:33.417Z,29.31
2023-05-13T02:24:33.464Z,29.39
2023-05-13T02:25:33.516Z,29.35
2023-05-13T02:26:33.574Z,29.36
2023-05-13T02:27:33.545Z,29.34
2023-05-13T02:28:33.606Z,29.38
2023-05-13T02:29:33.630Z,29.39
2023-05-13T02:30:33.658Z,29.34
2023-05-13T02:31:33.748Z,29.36
2023-05-13T02:32:33.778Z,29.33
2023-05-13T02:33:33.770Z,29.36
2023-05-13T02:34:33.833Z,29.34
2023-05-13T02:35:33.797Z,29.38
2023-05-13T02:36:33.876Z,29.35
2023-05-13T02:37:33.905Z,29.33
2023-05-13T02:38:33.943Z,29.35
2023-05-13T02:39:33.995Z,29.35
2023-05-13T02:40:33.992Z,29.36
2023-05-13T02:41:34.011Z,29.35
2023-05-13T02:42:34.067Z,29.37
2023-05-13T02:43:34.067Z,29.32
2023-05-13T02:44:34.114Z,29.37
2023-05-13T02:45:34.146Z,29.35
2023-05-13T02:46:34.251Z,29.36
2023-05-13T02:47:34.260Z,29.36
2023-05-13T02:48:34.230Z,29.36
2023-05-13T02:49:34.282Z,29.32
2023-05-13T02:50:34.366Z,29.36
2023-05-13T02:51:34.367Z,29.40
2023-05-13T02:52:34.373Z,29.33
2023-05-13T02:53:34.407Z,29.35
2023-05-13T02:54:34.410Z,29.35
2023-05-13T02:55:34.493Z,29.36
2023-05-13T02:56:34.526Z,29.35
2023-05-13T02:57:34.558Z,29.36
2023-05-13T02:58:34.600Z,29.38
2023-05-13T02:59:34.613Z,29.36
2023-05-13T03:00:34.668Z,29.40
2023-05-13T03:01:34.716Z,29.34
2023-05-13T03:02:34.824Z,29.35
2023-05-13T03:03:34.849Z,29.32
2023-05-13T03:04:34.805Z,29.36
2023-05-13T03:05:34.874Z,29.36
2023-05-13T03:06:34.880Z,29.36
2023-05-13T03:07:34.917Z,29.33
2023-05-13T03:08:34.950Z,29.39
2023-05-13T03:09:35.004Z,29.37
2023-05-13T03:10:35.040Z,29.36
2023-05-13T03:11:35.052Z,29.39
2023-05-13T03:12:35.070Z,29.34
2023-05-13T03:13:35.109Z,29.39
2023-05-13T03:14:35.166Z,29.34
2023-05-13T03:15:35.272Z,29.34
2023-05-13T03:16:35.221Z,29.31
2023-05-13T03:17:35.289Z,29.33
2023-05-13T03:18:35.376Z,29.34
2023-05-13T03:19:35.315Z,29.36
2023-05-13T03:20:35.377Z,29.36
2023-05-13T03:21:35.411Z,29.39
2023-05-13T03:22:35.443Z,29.40
2023-05-13T03:23:35.501Z,29.33
2023-05-13T03:24:35.512Z,29.36
2023-05-13T03:25:35.538Z,29.34
2023-05-13T03:26:35.564Z,29.36
2023-05-13T03:27:35.592Z,29.33
2023-05-13T03:28:35.669Z,29.36
2023-05-13T03:29:35.679Z,29.38
2023-05-13T03:30:35.700Z,29.34
2023-05-13T03:31:35.783Z,29.40
2023-05-13T03:32:35.842Z,29.38
2023-05-13T03:33:35.812Z,29.33
2023-05-13T03:34:35.876Z,29.36
2023-05-13T03:35:35.894Z,29.34
2023-05-13T03:36:35.919Z,29.39
2023-05-13T03:37:36.000Z,29.34
2023-05-13T03:38:35.981Z,29.36
2023-05-13T03:39:36.014Z,29.36
2023-05-13T03:40:36.051Z,29.33
2023-05-13T03:41:36.077Z,29.39
2023-05-13T03:42:36.166Z,29.39
2023-05-13T03:43:36.158Z,29.36
2023-05-13T03:44:36.214Z,29.35
2023-05-13T03:45:36.259Z,29.32
2023-05-13T03:46:36.297Z,29.37
2023-05-13T03:47:36.353Z,29.40
2023-05-13T03:48:36.335Z,29.37
2023-05-13T03:49:36.406Z,29.38
2023-05-13T03:50:36.440Z,29.37
2023-05-13T03:51:36.507Z,29.41
2023-05-13T03:52:36.505Z,29.38
2023-05-13T03:53:36.555Z,29.41
2023-05-13T03:54:36.604Z,29.42
2023-05-13T03:55:36.648Z,29.34
2023-05-13T03:56:36.680Z,29.37
2023-05-13T03:57:36.763Z,29.39
2023-05-13T03:58:36.725Z,29.39
2023-05-13T03:59:36.804Z,29.41
2023-05-13T04:00:36.836Z,29.36
2023-05-13T04:01:36.891Z,29.41
2023-05-13T04:02:37.016Z,29.42
2023-05-13T04:03:37.008Z,29.38
2023-05-13T04:04:37.148Z,29.40
2023-05-13T04:05:37.052Z,29.38
2023-05-13T04:06:37.131Z,29.38
2023-05-13T04:07:37.138Z,29.44
2023-05-13T04:08:37.184Z,29.43
2023-05-13T04:09:37.209Z,29.40
2023-05-13T04:10:37.212Z,29.42
2023-05-13T04:11:37.270Z,29.45
2023-05-13T04:12:37.322Z,29.41
2023-05-13T04:13:37.353Z,29.41
2023-05-13T04:14:37.417Z,29.39
2023-05-13T04:15:37.445Z,29.41
2023-05-13T04:16:37.500Z,29.42
2023-05-13T04:17:37.558Z,29.45
2023-05-13T04:18:37.572Z,29.41
2023-05-13T04:19:37.572Z,29.45
2023-05-13T04:20:37.682Z,29.42
2023-05-13T04:21:37.652Z,29.39
2023-05-13T04:22:37.717Z,29.44
2023-05-13T04:23:37.816Z,29.45
2023-05-13T04:24:37.742Z,29.42
2023-05-13T04:25:37.860Z,29.44
2023-05-13T04:26:37.893Z,29.45
2023-05-13T04:27:37.868Z,29.45
2023-05-13T04:28:37.898Z,29.45
2023-05-13T04:29:37.945Z,29.48
2023-05-13T04:30:37.996Z,29.44
2023-05-13T04:31:38.069Z,29.46
2023-05-13T04:32:38.094Z,29.44
2023-05-13T04:33:38.088Z,29.48
2023-05-13T04:34:38.136Z,29.46
2023-05-13T04:35:38.192Z,29.46
2023-05-13T04:36:38.204Z,29.49
2023-05-13T04:37:38.239Z,29.48
2023-05-13T04:38:38.301Z,29.46
2023-05-13T04:39:38.319Z,29.46
2023-05-13T04:40:38.370Z,29.48
2023-05-13T04:41:38.447Z,29.50
2023-05-13T04:42:38.428Z,29.50
2023-05-13T04:43:38.461Z,29.52
2023-05-13T04:44:38.536Z,29.52
2023-05-13T04:45:38.528Z,29.50
2023-05-13T04:46:38.635Z,29.48
2023-05-13T04:47:38.615Z,29.48
2023-05-13T04:48:38.657Z,29.49
2023-05-13T04:49:38.755Z,29.53
2023-05-13T04:50:38.732Z,29.52
2023-05-13T04:51:38.769Z,29.52
2023-05-13T04:52:38.814Z,29.55
2023-05-13T04:53:38.841Z,29.56
2023-05-13T04:54:38.877Z,29.52
2023-05-13T04:55:38.893Z,29.55
2023-05-13T04:56:38.941Z,29.56
2023-05-13T04:57:39.004Z,29.56
2023-05-13T04:58:39.028Z,29.53
2023-05-13T04:59:39.052Z,29.56
2023-05-13T05:00:39.120Z,29.57
2023-05-13T05:01:39.152Z,29.56
2023-05-13T05:02:39.244Z,29.55
2023-05-13T05:03:39.298Z,29.58
2023-05-13T05:04:39.248Z,29.55
2023-05-13T05:05:39.318Z,29.56
2023-05-13T05:06:39.329Z,29.57
2023-05-13T05:07:39.399Z,29.53
2023-05-13T05:08:39.422Z,29.59
2023-05-13T05:09:39.455Z,29.57
2023-05-13T05:10:39.471Z,29.61
2023-05-13T05:11:39.527Z,29.59
2023-05-13T05:12:39.594Z,29.59
2023-05-13T05:13:39.645Z,29.59
2023-05-13T05:14:39.662Z,29.56
2023-05-13T05:15:39.680Z,29.61
2023-05-13T05:16:39.750Z,29.60
2023-05-13T05:17:39.901Z,29.61
2023-05-13T05:18:39.909Z,29.66
2023-05-13T05:19:39.854Z,29.59
2023-05-13T05:20:39.925Z,29.63
2023-05-13T05:21:39.952Z,29.63
2023-05-13T05:22:39.992Z,29.64
2023-05-13T05:23:40.032Z,29.70
2023-05-13T05:24:40.073Z,29.67
2023-05-13T05:25:40.085Z,29.74
2023-05-13T05:26:42.718Z,29.69
2023-05-13T05:27:40.209Z,29.70
2023-05-13T05:28:40.376Z,29.69
2023-05-13T05:29:40.085Z,29.69
2023-05-13T05:30:40.359Z,29.72
2023-05-13T05:31:40.154Z,29.71
2023-05-13T05:32:40.152Z,29.71
2023-05-13T05:33:40.095Z,29.71
2023-05-13T05:34:40.094Z,29.68
2023-05-13T05:35:40.057Z,29.69
2023-05-13T05:36:40.111Z,29.69
2023-05-13T05:37:40.054Z,29.74
2023-05-13T05:38:40.048Z,29.64
2023-05-13T05:39:40.053Z,29.70
2023-05-13T05:40:40.033Z,29.70
2023-05-13T05:41:40.024Z,29.67
2023-05-13T05:42:40.051Z,29.67
2023-05-13T05:43:39.988Z,29.69
2023-05-13T05:44:40.012Z,29.73
2023-05-13T05:45:40.025Z,29.74
2023-05-13T05:46:39.992Z,29.69
2023-05-13T05:47:40.015Z,29.70
2023-05-13T05:48:39.959Z,29.71
2023-05-13T05:49:39.989Z,29.73
2023-05-13T05:50:39.919Z,29.78
2023-05-13T05:51:39.936Z,29.74
2023-05-13T05:52:39.949Z,29.71
2023-05-13T05:53:39.959Z,29.72
2023-05-13T05:54:39.954Z,29.70
2023-05-13T05:55:39.942Z,29.74
2023-05-13T05:56:39.918Z,29.74
2023-05-13T05:57:39.919Z,29.70
2023-05-13T05:58:39.918Z,29.77
2023-05-13T05:59:39.908Z,29.76
2023-05-13T06:00:40.227Z,29.76
2023-05-13T06:01:39.877Z,29.74
2023-05-13T06:02:39.974Z,29.77
2023-05-13T06:03:39.909Z,29.77
2023-05-13T06:04:39.886Z,29.77
2023-05-13T06:05:39.857Z,29.77
2023-05-13T06:06:39.885Z,29.80
2023-05-13T06:07:39.824Z,29.80
2023-05-13T06:08:39.853Z,29.81
2023-05-13T06:09:39.832Z,29.77
2023-05-13T06:10:39.818Z,29.83
2023-05-13T06:11:39.829Z,29.84
2023-05-13T06:12:39.811Z,29.81
2023-05-13T06:13:39.787Z,29.79
2023-05-13T06:14:39.795Z,29.83
2023-05-13T06:15:39.826Z,29.80
2023-05-13T06:16:39.777Z,29.83
2023-05-13T06:17:39.814Z,29.87
2023-05-13T06:18:39.818Z,29.86
2023-05-13T06:19:39.779Z,29.87
2023-05-13T06:20:39.819Z,29.88
2023-05-13T06:21:39.819Z,29.85
2023-05-13T06:22:39.964Z,29.86
2023-05-13T06:23:39.903Z,29.86
2023-05-13T06:24:39.942Z,29.89
2023-05-13T06:25:39.955Z,29.89
2023-05-13T06:26:39.983Z,29.90
2023-05-13T06:27:40.027Z,29.89
2023-05-13T06:28:40.020Z,29.90
2023-05-13T06:29:40.072Z,29.93
2023-05-13T06:30:40.113Z,29.94
2023-05-13T06:31:40.187Z,29.96
2023-05-13T06:32:47.283Z,29.97
2023-05-13T06:33:41.155Z,29.97
2023-05-13T06:34:40.158Z,30.02
2023-05-13T06:35:40.099Z,29.97
2023-05-13T06:36:40.134Z,30.02
2023-05-13T06:37:40.113Z,30.03
2023-05-13T06:38:40.095Z,30.02
2023-05-13T06:39:40.097Z,30.01
2023-05-13T06:40:40.074Z,30.04
2023-05-13T06:41:40.077Z,30.07
2023-05-13T06:42:40.058Z,30.06
2023-05-13T06:43:40.075Z,30.11
2023-05-13T06:44:40.054Z,30.10
2023-05-13T06:45:40.036Z,30.11
2023-05-13T06:46:40.096Z,30.09
2023-05-13T06:47:40.090Z,30.15
2023-05-13T06:48:40.032Z,30.11
2023-05-13T06:49:39.990Z,30.17
2023-05-13T06:50:40.017Z,30.20
2023-05-13T06:51:39.997Z,30.18
2023-05-13T06:52:41.947Z,30.17
2023-05-13T06:53:40.101Z,30.21
2023-05-13T06:54:40.077Z,30.22
2023-05-13T06:55:40.141Z,30.21
2023-05-13T06:56:40.155Z,30.21
2023-05-13T06:57:42.889Z,30.24
2023-05-13T06:58:40.166Z,30.24
2023-05-13T06:59:40.195Z,30.20
2023-05-13T07:00:40.184Z,30.23
2023-05-13T07:01:40.151Z,30.20
2023-05-13T07:02:40.158Z,30.20
2023-05-13T07:03:40.154Z,30.22
2023-05-13T07:04:40.141Z,30.22
2023-05-13T07:05:40.119Z,30.23
2023-05-13T07:06:40.124Z,30.23
2023-05-13T07:07:40.131Z,30.18
2023-05-13T07:08:40.119Z,30.22
2023-05-13T07:09:40.086Z,30.20
2023-05-13T07:10:40.083Z,30.19
2023-05-13T07:11:40.051Z,30.18
2023-05-13T07:12:40.083Z,30.18
2023-05-13T07:13:40.180Z,30.17
2023-05-13T07:14:40.076Z,30.17
2023-05-13T07:15:40.031Z,30.17
2023-05-13T07:16:40.071Z,30.14
2023-05-13T07:17:40.035Z,30.18
2023-05-13T07:18:40.079Z,30.17
2023-05-13T07:19:40.087Z,30.13
2023-05-13T07:20:40.005Z,30.12
2023-05-13T07:21:40.014Z,30.13
2023-05-13T07:22:40.018Z,30.13
2023-05-13T07:23:40.001Z,30.13
2023-05-13T07:24:39.954Z,30.16
2023-05-13T07:25:39.980Z,30.13
2023-05-13T07:26:39.974Z,30.16
2023-05-13T07:27:39.948Z,30.14
2023-05-13T07:28:39.972Z,30.15
2023-05-13T07:29:39.950Z,30.19
2023-05-13T07:30:39.941Z,30.16
2023-05-13T07:31:39.897Z,30.15
2023-05-13T07:32:40.048Z,30.12
2023-05-13T07:33:39.917Z,30.17
2023-05-13T07:34:39.918Z,30.12
2023-05-13T07:35:39.909Z,30.12
2023-05-13T07:36:39.901Z,30.12
2023-05-13T07:37:39.888Z,30.10
2023-05-13T07:38:39.928Z,30.10
2023-05-13T07:39:39.865Z,30.13
2023-05-13T07:40:39.860Z,30.15
2023-05-13T07:41:39.895Z,30.05
2023-05-13T07:42:39.850Z,30.14
2023-05-13T07:43:39.868Z,30.08
2023-05-13T07:44:39.817Z,30.10
2023-05-13T07:45:39.845Z,30.05
2023-05-13T07:46:39.870Z,30.08
2023-05-13T07:47:40.698Z,30.03
2023-05-13T07:48:39.809Z,30.06
2023-05-13T07:49:39.791Z,30.03
2023-05-13T07:50:39.812Z,30.01
2023-05-13T07:51:39.820Z,30.03
2023-05-13T07:52:39.794Z,30.00
2023-05-13T07:53:39.795Z,29.98
2023-05-13T07:54:39.755Z,30.02
2023-05-13T07:55:39.771Z,29.98
2023-05-13T07:56:39.760Z,29.97
2023-05-13T07:57:39.770Z,29.98
2023-05-13T07:58:39.726Z,29.95
2023-05-13T07:59:39.774Z,29.99
2023-05-13T08:00:40.144Z,30.00
2023-05-13T08:01:39.701Z,29.95
2023-05-13T08:02:39.806Z,29.95
2023-05-13T08:03:39.883Z,29.95
2023-05-13T08:04:39.733Z,29.96
2023-05-13T08:05:39.735Z,29.95
2023-05-13T08:06:40.238Z,29.93
2023-05-13T08:07:39.690Z,29.91
2023-05-13T08:08:39.693Z,29.94
2023-05-13T08:09:39.692Z,29.93
2023-05-13T08:10:39.667Z,29.91
2023-05-13T08:11:39.652Z,29.88
2023-05-13T08:12:39.671Z,29.88
2023-05-13T08:13:39.674Z,29.86
2023-05-13T08:14:39.683Z,29.84
2023-05-13T08:15:39.703Z,29.80
2023-05-13T08:16:39.753Z,29.82
2023-05-13T08:17:39.734Z,29.82
2023-05-13T08:18:39.843Z,29.77
2023-05-13T08:19:39.837Z,29.78
2023-05-13T08:20:39.785Z,29.82
2023-05-13T08:21:39.878Z,29.84
2023-05-13T08:22:39.882Z,29.80
2023-05-13T08:23:45.468Z,29.82
2023-05-13T08:24:40.920Z,29.83
2023-05-13T08:25:39.933Z,29.82
2023-05-13T08:26:39.904Z,29.82
2023-05-13T08:27:39.896Z,29.90
2023-05-13T08:28:39.970Z,29.88
2023-05-13T08:29:39.855Z,29.85
2023-05-13T08:30:39.880Z,29.86
2023-05-13T08:31:39.966Z,29.91
2023-05-13T08:32:39.853Z,29.85
2023-05-13T08:33:39.933Z,29.74
2023-05-13T08:34:40.006Z,29.67
2023-05-13T08:35:40.084Z,29.77
2023-05-13T08:36:40.112Z,29.77
2023-05-13T08:37:40.153Z,29.74
2023-05-13T08:38:40.227Z,29.93
2023-05-13T08:39:40.338Z,29.83
2023-05-13T08:40:40.394Z,29.82
2023-05-13T08:41:40.412Z,29.98
2023-05-13T08:42:40.512Z,29.80
2023-05-13T08:43:40.560Z,29.95
2023-05-13T08:44:40.608Z,29.90
2023-05-13T08:45:40.723Z,29.93
2023-05-13T08:46:40.733Z,29.94
2023-05-13T08:47:40.828Z,29.82
2023-05-13T08:48:40.895Z,29.90
2023-05-13T08:49:40.894Z,29.90
2023-05-13T08:50:40.995Z,29.90
2023-05-13T08:51:41.013Z,29.85
2023-05-13T08:52:41.047Z,29.83
2023-05-13T08:53:41.141Z,29.88
2023-05-13T08:54:41.175Z,29.86
2023-05-13T08:55:41.279Z,29.98
2023-05-13T08:56:41.298Z,29.89
2023-05-13T08:57:41.391Z,30.04
2023-05-13T08:58:41.412Z,30.03
2023-05-13T08:59:41.444Z,30.07
2023-05-13T09:00:41.500Z,29.94
2023-05-13T09:01:41.639Z,30.03
2023-05-13T09:02:41.615Z,30.02
2023-05-13T09:03:41.644Z,30.03
2023-05-13T09:04:41.836Z,30.10
2023-05-13T09:05:41.837Z,30.10
2023-05-13T09:06:41.756Z,29.90
2023-05-13T09:07:41.819Z,30.04
2023-05-13T09:08:41.883Z,30.04
2023-05-13T09:09:41.911Z,29.99
2023-05-13T09:10:42.000Z,30.08
2023-05-13T09:11:44.554Z,30.09
2023-05-13T09:12:42.009Z,30.15
2023-05-13T09:13:42.006Z,30.13
2023-05-13T09:14:41.976Z,30.10
2023-05-13T09:15:42.035Z,30.17
2023-05-13T09:16:41.968Z,30.17
2023-05-13T09:17:42.019Z,30.15
2023-05-13T09:18:42.109Z,30.16
2023-05-13T09:19:42.018Z,30.09
2023-05-13T09:20:41.954Z,30.09
2023-05-13T09:21:41.914Z,30.09
2023-05-13T09:22:41.902Z,30.15
2023-05-13T09:23:41.907Z,30.14
2023-05-13T09:24:41.916Z,30.21
2023-05-13T09:25:41.887Z,30.13
2023-05-13T09:26:41.906Z,30.08
2023-05-13T09:27:41.895Z,30.07
2023-05-13T09:28:41.884Z,30.11
2023-05-13T09:29:41.849Z,30.15
2023-05-13T09:30:44.526Z,30.11
2023-05-13T09:31:41.915Z,30.14
2023-05-13T09:32:41.902Z,30.13
2023-05-13T09:33:41.863Z,30.17
2023-05-13T09:34:41.863Z,30.14
2023-05-13T09:35:41.828Z,30.16
2023-05-13T09:36:41.832Z,30.16
2023-05-13T09:37:41.795Z,30.18
2023-05-13T09:38:41.827Z,30.17
2023-05-13T09:39:42.049Z,30.14
2023-05-13T09:40:41.781Z,30.16
2023-05-13T09:41:41.783Z,30.18
2023-05-13T09:42:41.784Z,30.17
2023-05-13T09:43:41.812Z,30.19
2023-05-13T09:44:41.751Z,30.16
2023-05-13T09:45:41.754Z,30.17
2023-05-13T09:46:41.773Z,30.14
2023-05-13T09:47:41.745Z,30.14
2023-05-13T09:48:41.730Z,30.15
2023-05-13T09:49:41.736Z,30.20
2023-05-13T09:50:41.700Z,30.20
2023-05-13T09:51:41.679Z,30.15
2023-05-13T09:52:41.689Z,30.19
2023-05-13T09:53:41.742Z,30.14
2023-05-13T09:54:41.684Z,30.09
2023-05-13T09:55:41.684Z,30.12
2023-05-13T09:56:41.725Z,30.11
2023-05-13T09:57:41.737Z,30.12
2023-05-13T09:58:41.726Z,30.10
2023-05-13T09:59:41.813Z,29.85
2023-05-13T10:00:42.229Z,29.97
2023-05-13T10:01:41.931Z,30.04
2023-05-13T10:02:41.944Z,30.05
2023-05-13T10:03:41.924Z,30.05
2023-05-13T10:04:41.944Z,30.05
2023-05-13T10:05:42.026Z,29.99
2023-05-13T10:06:41.999Z,29.96
2023-05-13T10:07:42.031Z,29.93
2023-05-13T10:08:42.092Z,29.88
2023-05-13T10:09:42.093Z,29.92
2023-05-13T10:10:42.157Z,29.88
2023-05-13T10:11:42.171Z,29.95
2023-05-13T10:12:42.207Z,29.88
2023-05-13T10:13:42.235Z,29.82
2023-05-13T10:14:42.255Z,29.81
2023-05-13T10:15:42.263Z,29.76
2023-05-13T10:16:42.374Z,29.74
2023-05-13T10:17:42.376Z,29.75
2023-05-13T10:18:42.449Z,29.75
2023-05-13T10:19:42.401Z,29.73
2023-05-13T10:20:42.424Z,29.69
2023-05-13T10:21:42.480Z,29.66
2023-05-13T10:22:42.490Z,29.65
2023-05-13T10:23:42.522Z,29.69
2023-05-13T10:24:42.524Z,29.75
2023-05-13T10:25:42.600Z,29.71
2023-05-13T10:26:42.617Z,29.69
2023-05-13T10:27:42.655Z,29.68
2023-05-13T10:28:42.698Z,29.53
2023-05-13T10:29:42.736Z,29.58
2023-05-13T10:30:42.752Z,29.55
2023-05-13T10:31:42.840Z,29.58
2023-05-13T10:32:42.835Z,29.62
2023-05-13T10:33:42.817Z,29.64
2023-05-13T10:34:42.882Z,29.48
2023-05-13T10:35:43.315Z,29.59
2023-05-13T10:36:42.942Z,29.55
2023-05-13T10:37:42.943Z,29.62
2023-05-13T10:38:42.977Z,29.55
2023-05-13T10:39:43.010Z,29.60
2023-05-13T10:40:43.093Z,29.47
2023-05-13T10:41:43.129Z,29.49
2023-05-13T10:42:43.210Z,29.53
2023-05-13T10:43:43.136Z,29.47
2023-05-13T10:44:43.171Z,29.15
2023-05-13T10:45:43.292Z,28.76
2023-05-13T10:46:43.412Z,28.54
2023-05-13T10:47:43.421Z,28.50
2023-05-13T10:48:43.699Z,28.36
2023-05-13T10:49:43.353Z,28.45
2023-05-13T10:50:43.392Z,28.36
2023-05-13T10:51:43.445Z,28.16
2023-05-13T10:52:43.522Z,28.16
2023-05-13T10:53:43.586Z,27.98
2023-05-13T10:54:43.623Z,28.33
2023-05-13T10:55:43.627Z,28.28
2023-05-13T10:56:43.648Z,28.29
2023-05-13T10:57:43.628Z,28.27
2023-05-13T10:58:43.654Z,28.19
2023-05-13T10:59:43.668Z,28.32
2023-05-13T11:00:43.696Z,28.37
2023-05-13T11:01:44.257Z,28.45
2023-05-13T11:02:43.859Z,28.39
2023-05-13T11:03:43.839Z,28.31
2023-05-13T11:04:43.797Z,28.38
2023-05-13T11:05:43.774Z,28.27
2023-05-13T11:06:43.816Z,28.31
2023-05-13T11:07:43.822Z,28.35
2023-05-13T11:08:43.879Z,28.34
2023-05-13T11:09:43.925Z,28.29
2023-05-13T11:10:43.951Z,28.32
2023-05-13T11:11:44.013Z,28.29
2023-05-13T11:12:44.006Z,28.29
2023-05-13T11:13:44.021Z,28.34
2023-05-13T11:14:44.074Z,28.29
2023-05-13T11:15:44.166Z,28.36
2023-05-13T11:16:44.332Z,28.26
2023-05-13T11:17:44.206Z,28.34
2023-05-13T11:18:44.317Z,28.20
2023-05-13T11:19:44.304Z,28.21
2023-05-13T11:20:52.084Z,28.13
2023-05-13T11:21:45.356Z,28.27
2023-05-13T11:22:44.322Z,28.13
2023-05-13T11:23:44.299Z,28.17
2023-05-13T11:24:44.288Z,28.13
2023-05-13T11:25:44.298Z,28.03
2023-05-13T11:26:44.308Z,27.96
2023-05-13T11:27:44.268Z,28.11
2023-05-13T11:28:44.279Z,28.08
2023-05-13T11:29:44.293Z,27.99
2023-05-13T11:30:44.236Z,28.09
2023-05-13T11:31:44.362Z,28.12
2023-05-13T11:32:44.265Z,28.10
2023-05-13T11:33:44.311Z,28.09
2023-05-13T11:34:44.358Z,28.05
2023-05-13T11:35:44.380Z,28.02
2023-05-13T11:36:44.432Z,28.03
2023-05-13T11:37:44.477Z,28.01
2023-05-13T11:38:44.500Z,28.09
2023-05-13T11:39:44.602Z,28.17
2023-05-13T11:40:44.604Z,28.18
2023-05-13T11:41:44.666Z,28.02
2023-05-13T11:42:44.726Z,28.10
2023-05-13T11:43:44.719Z,28.06
2023-05-13T11:44:44.780Z,28.00
2023-05-13T11:45:44.799Z,28.11
2023-05-13T11:46:44.843Z,28.15
2023-05-13T11:47:44.931Z,27.99
2023-05-13T11:48:44.861Z,28.07
2023-05-13T11:49:44.913Z,28.02
2023-05-13T11:50:44.977Z,27.94
2023-05-13T11:51:44.997Z,27.94
2023-05-13T11:52:45.011Z,27.93
2023-05-13T11:53:45.010Z,27.90
2023-05-13T11:54:45.077Z,27.89
2023-05-13T11:55:45.037Z,27.86
2023-05-13T11:56:45.125Z,27.81
2023-05-13T11:57:45.134Z,27.84
2023-05-13T11:58:45.143Z,27.91
2023-05-13T11:59:48.261Z,27.86
2023-05-13T12:00:46.649Z,27.92
2023-05-13T12:01:45.137Z,27.80
2023-05-13T12:02:45.190Z,27.74
2023-05-13T12:03:45.074Z,27.75
2023-05-13T12:04:45.111Z,27.84
2023-05-13T12:05:45.106Z,27.76
2023-05-13T12:06:45.117Z,27.90
2023-05-13T12:07:45.048Z,27.88
2023-05-13T12:08:45.089Z,27.81
2023-05-13T12:09:45.073Z,27.60
2023-05-13T12:10:45.019Z,27.49
2023-05-13T12:11:45.030Z,27.65
2023-05-13T12:12:45.009Z,27.52
2023-05-13T12:13:45.017Z,27.49
2023-05-13T12:14:44.992Z,27.42
2023-05-13T12:15:45.014Z,27.38
2023-05-13T12:16:44.998Z,27.28
2023-05-13T12:17:45.053Z,27.34
2023-05-13T12:18:45.018Z,27.35
2023-05-13T12:19:44.966Z,27.30
2023-05-13T12:20:44.980Z,27.19
2023-05-13T12:21:44.994Z,27.20
2023-05-13T12:22:44.974Z,27.26
2023-05-13T12:23:44.951Z,26.93
2023-05-13T12:24:45.040Z,26.82
2023-05-13T12:25:45.201Z,26.94
2023-05-13T12:26:45.131Z,26.84
2023-05-13T12:27:45.193Z,26.84
2023-05-13T12:28:45.244Z,26.81
2023-05-13T12:29:45.292Z,26.69
2023-05-13T12:30:45.356Z,26.55
2023-05-13T12:31:45.445Z,26.49
2023-05-13T12:32:47.168Z,26.39
2023-05-13T12:33:45.480Z,26.43
2023-05-13T12:34:45.527Z,26.19
2023-05-13T12:35:45.605Z,26.27
2023-05-13T12:36:45.638Z,26.34
2023-05-13T12:37:45.675Z,26.31
2023-05-13T12:38:45.757Z,26.08
2023-05-13T12:39:45.774Z,26.01
2023-05-13T12:40:45.855Z,25.98
2023-05-13T12:41:45.840Z,25.98
2023-05-13T12:42:45.896Z,25.88
2023-05-13T12:43:45.958Z,25.90
2023-05-13T12:44:45.976Z,25.80
2023-05-13T12:45:46.064Z,25.72
2023-05-13T12:46:46.122Z,25.90
2023-05-13T12:47:46.201Z,26.01
2023-05-13T12:48:46.178Z,25.88
2023-05-13T12:49:46.189Z,25.98
2023-05-13T12:50:46.248Z,25.98
2023-05-13T12:51:46.296Z,25.90
2023-05-13T12:52:46.320Z,25.98